sensor_id;sensor_type;location;lat;lon;timestamp;P1;durP1;ratioP1;P2;durP2;ratioP2
48285;SDS011;34102;47.716;10.296;2023-03-01T04:57:59;33.42;;;16.63;;
48285;SDS011;34102;47.716;10.296;2023-03-01T05:00:25;28.95;;;16.45;;
48285;SDS011;34102;47.716;10.296;2023-03-01T05:02:52;27.73;;;16.85;;
48285;SDS011;34102;47.716;10.296;2023-03-01T05:05:21;26.98;;;14.95;;
48285;SDS011;34102;47.716;10.296;2023-03-01T05:07:51;26.65;;;15.60;;
48285;SDS011;34102;47.716;10.296;2023-03-01T05:10:16;31.25;;;16.55;;
48285;SDS011;34102;47.716;10.296;2023-03-01T05:12:42;32.00;;;17.80;;
48285;SDS011;34102;47.716;10.296;2023-03-01T05:15:07;29.92;;;18.60;;
48285;SDS011;34102;47.716;10.296;2023-03-01T05:17:33;28.80;;;16.83;;
48285;SDS011;34102;47.716;10.296;2023-03-01T05:19:59;26.95;;;16.10;;
48285;SDS011;34102;47.716;10.296;2023-03-01T05:22:24;31.88;;;17.52;;
48285;SDS011;34102;47.716;10.296;2023-03-01T05:24:50;29.13;;;17.38;;
48285;SDS011;34102;47.716;10.296;2023-03-01T05:27:15;33.25;;;18.08;;
48285;SDS011;34102;47.716;10.296;2023-03-01T05:29:40;30.30;;;16.88;;
48285;SDS011;34102;47.716;10.296;2023-03-01T05:32:06;33.05;;;18.45;;
48285;SDS011;34102;47.716;10.296;2023-03-01T05:34:32;30.35;;;17.10;;
48285;SDS011;34102;47.716;10.296;2023-03-01T05:36:58;32.53;;;18.25;;
48285;SDS011;34102;47.716;10.296;2023-03-01T05:39:24;29.48;;;16.27;;
48285;SDS011;34102;47.716;10.296;2023-03-01T05:41:57;32.42;;;16.73;;
48285;SDS011;34102;47.716;10.296;2023-03-01T05:44:23;26.27;;;15.38;;
48285;SDS011;34102;47.716;10.296;2023-03-01T05:46:48;28.05;;;17.10;;
48285;SDS011;34102;47.716;10.296;2023-03-01T05:49:14;28.20;;;16.77;;
48285;SDS011;34102;47.716;10.296;2023-03-01T05:51:40;26.92;;;15.93;;
48285;SDS011;34102;47.716;10.296;2023-03-01T05:54:06;30.48;;;16.35;;
48285;SDS011;34102;47.716;10.296;2023-03-01T05:56:32;27.33;;;15.93;;
48285;SDS011;34102;47.716;10.296;2023-03-01T05:58:59;28.52;;;16.20;;
48285;SDS011;34102;47.716;10.296;2023-03-01T06:01:24;31.30;;;16.98;;
48285;SDS011;34102;47.716;10.296;2023-03-01T06:03:50;28.30;;;16.52;;
48285;SDS011;34102;47.716;10.296;2023-03-01T06:06:15;33.55;;;18.50;;
48285;SDS011;34102;47.716;10.296;2023-03-01T06:08:40;32.50;;;17.13;;
48285;SDS011;34102;47.716;10.296;2023-03-01T06:11:06;37.13;;;20.10;;
48285;SDS011;34102;47.716;10.296;2023-03-01T06:13:32;31.60;;;17.50;;
48285;SDS011;34102;47.716;10.296;2023-03-01T06:15:58;27.38;;;14.70;;
48285;SDS011;34102;47.716;10.296;2023-03-01T06:18:23;28.50;;;15.35;;
48285;SDS011;34102;47.716;10.296;2023-03-01T06:20:55;25.70;;;15.63;;
48285;SDS011;34102;47.716;10.296;2023-03-01T06:23:21;27.27;;;15.70;;
48285;SDS011;34102;47.716;10.296;2023-03-01T06:25:47;27.85;;;17.05;;
48285;SDS011;34102;47.716;10.296;2023-03-01T06:30:40;25.27;;;14.30;;
48285;SDS011;34102;47.716;10.296;2023-03-01T06:33:05;22.58;;;14.05;;
48285;SDS011;34102;47.716;10.296;2023-03-01T06:35:30;22.80;;;13.43;;
48285;SDS011;34102;47.716;10.296;2023-03-01T06:37:56;25.77;;;14.32;;
48285;SDS011;34102;47.716;10.296;2023-03-01T06:40:22;25.10;;;13.88;;
48285;SDS011;34102;47.716;10.296;2023-03-01T06:42:48;24.77;;;14.90;;
48285;SDS011;34102;47.716;10.296;2023-03-01T06:45:20;26.38;;;13.93;;
48285;SDS011;34102;47.716;10.296;2023-03-01T06:53:32;23.63;;;13.38;;
48285;SDS011;34102;47.716;10.296;2023-03-01T06:55:57;23.73;;;14.02;;
48285;SDS011;34102;47.716;10.296;2023-03-01T06:58:24;25.70;;;13.93;;
48285;SDS011;34102;47.716;10.296;2023-03-01T07:27:34;25.55;;;14.63;;
48285;SDS011;34102;47.716;10.296;2023-03-01T07:30:06;22.77;;;13.52;;
48285;SDS011;34102;47.716;10.296;2023-03-01T07:32:53;20.73;;;12.77;;
48285;SDS011;34102;47.716;10.296;2023-03-01T07:35:24;24.75;;;14.57;;
48285;SDS011;34102;47.716;10.296;2023-03-01T07:37:50;25.90;;;13.95;;
48285;SDS011;34102;47.716;10.296;2023-03-01T07:40:15;25.88;;;14.18;;
48285;SDS011;34102;47.716;10.296;2023-03-01T07:42:40;24.92;;;13.98;;
48285;SDS011;34102;47.716;10.296;2023-03-01T07:45:06;25.83;;;13.38;;
48285;SDS011;34102;47.716;10.296;2023-03-01T07:47:31;27.08;;;15.05;;
48285;SDS011;34102;47.716;10.296;2023-03-01T07:49:57;27.60;;;15.07;;
48285;SDS011;34102;47.716;10.296;2023-03-01T07:52:22;22.08;;;12.43;;
48285;SDS011;34102;47.716;10.296;2023-03-01T07:54:47;22.25;;;12.48;;
48285;SDS011;34102;47.716;10.296;2023-03-01T07:57:13;20.70;;;11.88;;
48285;SDS011;34102;47.716;10.296;2023-03-01T07:59:38;25.50;;;15.07;;
48285;SDS011;34102;47.716;10.296;2023-03-01T08:02:04;23.92;;;15.60;;
48285;SDS011;34102;47.716;10.296;2023-03-01T08:04:29;21.77;;;12.60;;
48285;SDS011;34102;47.716;10.296;2023-03-01T08:06:54;21.05;;;13.43;;
48285;SDS011;34102;47.716;10.296;2023-03-01T08:09:20;22.60;;;12.80;;
48285;SDS011;34102;47.716;10.296;2023-03-01T08:11:46;21.98;;;13.85;;
48285;SDS011;34102;47.716;10.296;2023-03-01T08:14:12;20.73;;;12.55;;
48285;SDS011;34102;47.716;10.296;2023-03-01T08:16:38;22.92;;;12.88;;
48285;SDS011;34102;47.716;10.296;2023-03-01T08:19:04;21.95;;;13.05;;
48285;SDS011;34102;47.716;10.296;2023-03-01T08:21:29;22.23;;;13.45;;
48285;SDS011;34102;47.716;10.296;2023-03-01T08:23:55;24.77;;;13.73;;
48285;SDS011;34102;47.716;10.296;2023-03-01T08:26:21;25.13;;;14.85;;
48285;SDS011;34102;47.716;10.296;2023-03-01T08:28:46;21.98;;;13.95;;
48285;SDS011;34102;47.716;10.296;2023-03-01T08:31:16;21.52;;;13.50;;
48285;SDS011;34102;47.716;10.296;2023-03-01T08:33:46;23.50;;;14.65;;
48285;SDS011;34102;47.716;10.296;2023-03-01T08:36:20;21.90;;;13.68;;
48285;SDS011;34102;47.716;10.296;2023-03-01T08:38:46;26.23;;;14.63;;
48285;SDS011;34102;47.716;10.296;2023-03-01T08:41:11;24.70;;;13.75;;
48285;SDS011;34102;47.716;10.296;2023-03-01T08:43:37;24.20;;;13.88;;
48285;SDS011;34102;47.716;10.296;2023-03-01T08:46:02;22.10;;;13.73;;
48285;SDS011;34102;47.716;10.296;2023-03-01T08:48:28;22.98;;;14.27;;
48285;SDS011;34102;47.716;10.296;2023-03-01T08:50:54;24.75;;;13.63;;
48285;SDS011;34102;47.716;10.296;2023-03-01T08:53:19;23.58;;;12.93;;
48285;SDS011;34102;47.716;10.296;2023-03-01T08:55:44;27.58;;;14.85;;
48285;SDS011;34102;47.716;10.296;2023-03-01T08:58:10;24.90;;;14.70;;
48285;SDS011;34102;47.716;10.296;2023-03-01T09:00:35;27.77;;;14.75;;
48285;SDS011;34102;47.716;10.296;2023-03-01T09:03:00;23.23;;;14.00;;
48285;SDS011;34102;47.716;10.296;2023-03-01T09:05:26;24.83;;;14.32;;
48285;SDS011;34102;47.716;10.296;2023-03-01T09:07:51;22.13;;;13.18;;
48285;SDS011;34102;47.716;10.296;2023-03-01T09:10:17;27.30;;;13.90;;
48285;SDS011;34102;47.716;10.296;2023-03-01T09:12:45;24.50;;;14.60;;
48285;SDS011;34102;47.716;10.296;2023-03-01T09:15:10;22.92;;;14.05;;
48285;SDS011;34102;47.716;10.296;2023-03-01T09:17:35;23.17;;;14.63;;
48285;SDS011;34102;47.716;10.296;2023-03-01T09:20:01;23.77;;;14.18;;
48285;SDS011;34102;47.716;10.296;2023-03-01T09:22:26;24.65;;;14.43;;
48285;SDS011;34102;47.716;10.296;2023-03-01T09:24:52;30.35;;;16.00;;
48285;SDS011;34102;47.716;10.296;2023-03-01T09:27:18;26.90;;;15.70;;
48285;SDS011;34102;47.716;10.296;2023-03-01T09:29:44;21.98;;;13.80;;
48285;SDS011;34102;47.716;10.296;2023-03-01T09:32:10;25.48;;;14.55;;
48285;SDS011;34102;47.716;10.296;2023-03-01T09:34:36;28.13;;;15.23;;
48285;SDS011;34102;47.716;10.296;2023-03-01T09:39:46;23.57;;;14.97;;
48285;SDS011;34102;47.716;10.296;2023-03-01T09:42:12;25.75;;;14.75;;
48285;SDS011;34102;47.716;10.296;2023-03-01T09:44:39;26.60;;;15.68;;
48285;SDS011;34102;47.716;10.296;2023-03-01T09:49:42;24.02;;;14.13;;
48285;SDS011;34102;47.716;10.296;2023-03-01T09:52:32;24.30;;;15.05;;
48285;SDS011;34102;47.716;10.296;2023-03-01T09:54:59;26.80;;;15.68;;
48285;SDS011;34102;47.716;10.296;2023-03-01T09:57:30;26.08;;;14.88;;
48285;SDS011;34102;47.716;10.296;2023-03-01T10:00:03;23.33;;;14.65;;
48285;SDS011;34102;47.716;10.296;2023-03-01T10:07:33;27.23;;;14.70;;
48285;SDS011;34102;47.716;10.296;2023-03-01T10:10:04;28.67;;;15.57;;
48285;SDS011;34102;47.716;10.296;2023-03-01T10:12:37;28.77;;;16.17;;
48285;SDS011;34102;47.716;10.296;2023-03-01T10:20:21;30.83;;;17.42;;
48285;SDS011;34102;47.716;10.296;2023-03-01T10:22:46;28.85;;;15.93;;
48285;SDS011;34102;47.716;10.296;2023-03-01T10:25:17;29.83;;;15.07;;
48285;SDS011;34102;47.716;10.296;2023-03-01T10:27:53;24.88;;;14.77;;
48285;SDS011;34102;47.716;10.296;2023-03-01T10:32:47;33.33;;;14.80;;
48285;SDS011;34102;47.716;10.296;2023-03-01T10:35:22;34.85;;;17.40;;
48285;SDS011;34102;47.716;10.296;2023-03-01T10:38:02;33.53;;;16.77;;
48285;SDS011;34102;47.716;10.296;2023-03-01T10:40:28;24.83;;;15.63;;
48285;SDS011;34102;47.716;10.296;2023-03-01T10:42:53;29.40;;;16.85;;
48285;SDS011;34102;47.716;10.296;2023-03-01T10:45:32;26.20;;;16.35;;
48285;SDS011;34102;47.716;10.296;2023-03-01T10:48:18;25.52;;;15.15;;
48285;SDS011;34102;47.716;10.296;2023-03-01T10:50:45;26.75;;;16.55;;
48285;SDS011;34102;47.716;10.296;2023-03-01T10:53:19;26.38;;;15.93;;
48285;SDS011;34102;47.716;10.296;2023-03-01T10:55:45;24.60;;;15.85;;
48285;SDS011;34102;47.716;10.296;2023-03-01T11:03:15;23.15;;;14.80;;
48285;SDS011;34102;47.716;10.296;2023-03-01T11:06:01;28.05;;;16.85;;
48285;SDS011;34102;47.716;10.296;2023-03-01T11:13:34;32.67;;;16.50;;
48285;SDS011;34102;47.716;10.296;2023-03-01T11:16:00;29.48;;;16.85;;
48285;SDS011;34102;47.716;10.296;2023-03-01T11:18:26;24.77;;;16.15;;
48285;SDS011;34102;47.716;10.296;2023-03-01T11:20:52;23.27;;;15.13;;
48285;SDS011;34102;47.716;10.296;2023-03-01T11:23:18;27.52;;;14.90;;
48285;SDS011;34102;47.716;10.296;2023-03-01T11:25:58;28.73;;;17.48;;
48285;SDS011;34102;47.716;10.296;2023-03-01T11:28:25;29.33;;;16.95;;
48285;SDS011;34102;47.716;10.296;2023-03-01T11:30:56;28.85;;;16.60;;
48285;SDS011;34102;47.716;10.296;2023-03-01T11:36:11;26.63;;;15.82;;
48285;SDS011;34102;47.716;10.296;2023-03-01T11:38:38;25.20;;;15.67;;
48285;SDS011;34102;47.716;10.296;2023-03-01T11:51:16;28.55;;;17.20;;
48285;SDS011;34102;47.716;10.296;2023-03-01T12:03:38;30.20;;;17.23;;
48285;SDS011;34102;47.716;10.296;2023-03-01T12:24:10;24.88;;;14.80;;
48285;SDS011;34102;47.716;10.296;2023-03-01T12:29:24;28.77;;;16.67;;
48285;SDS011;34102;47.716;10.296;2023-03-01T12:37:24;28.67;;;15.55;;
48285;SDS011;34102;47.716;10.296;2023-03-01T12:45:31;23.35;;;15.65;;
48285;SDS011;34102;47.716;10.296;2023-03-01T12:50:27;27.98;;;17.33;;
48285;SDS011;34102;47.716;10.296;2023-03-01T12:52:55;32.88;;;17.17;;
48285;SDS011;34102;47.716;10.296;2023-03-01T12:55:41;37.22;;;17.88;;
48285;SDS011;34102;47.716;10.296;2023-03-01T13:03:48;28.88;;;18.25;;
48285;SDS011;34102;47.716;10.296;2023-03-01T13:11:51;24.83;;;16.45;;
48285;SDS011;34102;47.716;10.296;2023-03-01T13:16:48;24.38;;;16.10;;
48285;SDS011;34102;47.716;10.296;2023-03-01T13:19:23;27.25;;;15.32;;
48285;SDS011;34102;47.716;10.296;2023-03-01T13:21:50;25.23;;;15.57;;
48285;SDS011;34102;47.716;10.296;2023-03-01T13:24:37;24.95;;;15.43;;
48285;SDS011;34102;47.716;10.296;2023-03-01T13:29:48;25.33;;;14.45;;
48285;SDS011;34102;47.716;10.296;2023-03-01T13:32:24;28.10;;;16.52;;
48285;SDS011;34102;47.716;10.296;2023-03-01T13:34:50;25.77;;;15.65;;
48285;SDS011;34102;47.716;10.296;2023-03-01T13:42:43;25.55;;;15.15;;
48285;SDS011;34102;47.716;10.296;2023-03-01T13:47:45;26.00;;;14.80;;
48285;SDS011;34102;47.716;10.296;2023-03-01T13:50:18;25.60;;;15.95;;
48285;SDS011;34102;47.716;10.296;2023-03-01T13:52:47;22.70;;;14.18;;
48285;SDS011;34102;47.716;10.296;2023-03-01T13:55:18;26.52;;;15.40;;
48285;SDS011;34102;47.716;10.296;2023-03-01T13:57:43;29.55;;;16.88;;
48285;SDS011;34102;47.716;10.296;2023-03-01T14:03:10;25.33;;;15.43;;
48285;SDS011;34102;47.716;10.296;2023-03-01T14:05:37;27.35;;;16.17;;
48285;SDS011;34102;47.716;10.296;2023-03-01T14:08:03;26.30;;;16.35;;
48285;SDS011;34102;47.716;10.296;2023-03-01T14:10:31;26.27;;;15.57;;
48285;SDS011;34102;47.716;10.296;2023-03-01T14:13:06;27.00;;;15.82;;
48285;SDS011;34102;47.716;10.296;2023-03-01T14:20:29;26.70;;;16.98;;
48285;SDS011;34102;47.716;10.296;2023-03-01T14:22:57;27.25;;;15.20;;
48285;SDS011;34102;47.716;10.296;2023-03-01T14:27:54;24.63;;;15.18;;
48285;SDS011;34102;47.716;10.296;2023-03-01T14:30:27;27.70;;;15.88;;
48285;SDS011;34102;47.716;10.296;2023-03-01T14:35:25;24.80;;;14.82;;
48285;SDS011;34102;47.716;10.296;2023-03-01T14:37:50;25.15;;;14.85;;
48285;SDS011;34102;47.716;10.296;2023-03-01T14:40:23;24.85;;;14.32;;
48285;SDS011;34102;47.716;10.296;2023-03-01T14:42:49;28.77;;;15.93;;
48285;SDS011;34102;47.716;10.296;2023-03-01T14:45:14;27.10;;;15.77;;
48285;SDS011;34102;47.716;10.296;2023-03-01T14:47:40;27.48;;;16.50;;
48285;SDS011;34102;47.716;10.296;2023-03-01T14:50:23;30.13;;;15.52;;
48285;SDS011;34102;47.716;10.296;2023-03-01T14:52:49;32.22;;;17.17;;
48285;SDS011;34102;47.716;10.296;2023-03-01T14:55:19;28.10;;;16.20;;
48285;SDS011;34102;47.716;10.296;2023-03-01T14:57:49;29.25;;;16.95;;
48285;SDS011;34102;47.716;10.296;2023-03-01T15:00:16;26.60;;;15.70;;
48285;SDS011;34102;47.716;10.296;2023-03-01T15:02:42;32.25;;;16.95;;
48285;SDS011;34102;47.716;10.296;2023-03-01T15:05:09;28.63;;;16.67;;
48285;SDS011;34102;47.716;10.296;2023-03-01T15:07:36;29.63;;;16.48;;
48285;SDS011;34102;47.716;10.296;2023-03-01T15:10:03;29.40;;;16.40;;
48285;SDS011;34102;47.716;10.296;2023-03-01T15:12:39;28.98;;;17.00;;
48285;SDS011;34102;47.716;10.296;2023-03-01T15:15:22;32.38;;;17.88;;
48285;SDS011;34102;47.716;10.296;2023-03-01T15:17:56;30.17;;;15.68;;
48285;SDS011;34102;47.716;10.296;2023-03-01T15:20:22;31.35;;;15.68;;
48285;SDS011;34102;47.716;10.296;2023-03-01T15:22:51;27.27;;;15.32;;
48285;SDS011;34102;47.716;10.296;2023-03-01T15:25:17;27.80;;;17.02;;
48285;SDS011;34102;47.716;10.296;2023-03-01T15:27:46;51.78;;;24.45;;
48285;SDS011;34102;47.716;10.296;2023-03-01T15:30:22;30.08;;;16.70;;
48285;SDS011;34102;47.716;10.296;2023-03-01T15:32:48;27.30;;;15.55;;
48285;SDS011;34102;47.716;10.296;2023-03-01T15:35:33;27.40;;;16.75;;
48285;SDS011;34102;47.716;10.296;2023-03-01T15:38:00;24.00;;;14.75;;
48285;SDS011;34102;47.716;10.296;2023-03-01T15:40:27;27.27;;;16.45;;
48285;SDS011;34102;47.716;10.296;2023-03-01T15:45:24;26.10;;;15.18;;
48285;SDS011;34102;47.716;10.296;2023-03-01T15:50:27;29.73;;;16.58;;
48285;SDS011;34102;47.716;10.296;2023-03-01T15:52:53;33.17;;;18.38;;
48285;SDS011;34102;47.716;10.296;2023-03-01T15:55:19;27.63;;;15.52;;
48285;SDS011;34102;47.716;10.296;2023-03-01T15:57:45;31.20;;;16.85;;
48285;SDS011;34102;47.716;10.296;2023-03-01T16:00:11;30.65;;;17.52;;
48285;SDS011;34102;47.716;10.296;2023-03-01T16:02:38;30.95;;;16.98;;
48285;SDS011;34102;47.716;10.296;2023-03-01T16:05:04;28.58;;;15.52;;
48285;SDS011;34102;47.716;10.296;2023-03-01T16:07:30;29.60;;;16.92;;
48285;SDS011;34102;47.716;10.296;2023-03-01T16:09:56;29.42;;;16.30;;
48285;SDS011;34102;47.716;10.296;2023-03-01T16:12:22;32.72;;;17.40;;
48285;SDS011;34102;47.716;10.296;2023-03-01T16:14:49;26.45;;;16.67;;
48285;SDS011;34102;47.716;10.296;2023-03-01T16:17:14;30.55;;;17.10;;
48285;SDS011;34102;47.716;10.296;2023-03-01T16:19:40;31.13;;;17.83;;
48285;SDS011;34102;47.716;10.296;2023-03-01T16:22:06;27.75;;;17.10;;
48285;SDS011;34102;47.716;10.296;2023-03-01T16:24:31;28.50;;;17.45;;
48285;SDS011;34102;47.716;10.296;2023-03-01T16:26:57;31.42;;;17.63;;
48285;SDS011;34102;47.716;10.296;2023-03-01T16:29:22;29.90;;;17.20;;
48285;SDS011;34102;47.716;10.296;2023-03-01T16:31:48;30.50;;;18.52;;
48285;SDS011;34102;47.716;10.296;2023-03-01T16:34:13;33.72;;;18.08;;
48285;SDS011;34102;47.716;10.296;2023-03-01T16:36:38;31.70;;;16.88;;
48285;SDS011;34102;47.716;10.296;2023-03-01T16:39:04;26.48;;;17.77;;
48285;SDS011;34102;47.716;10.296;2023-03-01T16:41:29;25.83;;;16.67;;
48285;SDS011;34102;47.716;10.296;2023-03-01T16:43:54;29.05;;;17.88;;
48285;SDS011;34102;47.716;10.296;2023-03-01T16:46:22;32.40;;;18.88;;
48285;SDS011;34102;47.716;10.296;2023-03-01T16:48:47;28.83;;;16.60;;
48285;SDS011;34102;47.716;10.296;2023-03-01T16:51:13;32.10;;;18.35;;
48285;SDS011;34102;47.716;10.296;2023-03-01T16:53:38;34.53;;;19.05;;
48285;SDS011;34102;47.716;10.296;2023-03-01T16:56:05;30.90;;;18.65;;
48285;SDS011;34102;47.716;10.296;2023-03-01T16:58:30;30.65;;;17.88;;
48285;SDS011;34102;47.716;10.296;2023-03-01T17:00:56;30.15;;;18.60;;
48285;SDS011;34102;47.716;10.296;2023-03-01T17:03:22;32.50;;;18.83;;
48285;SDS011;34102;47.716;10.296;2023-03-01T17:05:47;28.50;;;17.80;;
48285;SDS011;34102;47.716;10.296;2023-03-01T17:08:13;35.85;;;18.27;;
48285;SDS011;34102;47.716;10.296;2023-03-01T17:10:38;31.08;;;19.92;;
48285;SDS011;34102;47.716;10.296;2023-03-01T17:13:04;32.53;;;19.33;;
48285;SDS011;34102;47.716;10.296;2023-03-01T17:15:29;31.27;;;18.33;;
48285;SDS011;34102;47.716;10.296;2023-03-01T17:17:55;30.17;;;17.95;;
48285;SDS011;34102;47.716;10.296;2023-03-01T17:20:20;34.20;;;19.75;;
48285;SDS011;34102;47.716;10.296;2023-03-01T17:22:45;37.92;;;21.48;;
48285;SDS011;34102;47.716;10.296;2023-03-01T17:25:11;33.92;;;20.13;;
48285;SDS011;34102;47.716;10.296;2023-03-01T17:27:37;30.80;;;19.20;;
48285;SDS011;34102;47.716;10.296;2023-03-01T17:30:04;36.67;;;19.90;;
48285;SDS011;34102;47.716;10.296;2023-03-01T17:32:30;31.63;;;19.00;;
48285;SDS011;34102;47.716;10.296;2023-03-01T17:34:55;31.52;;;18.83;;
48285;SDS011;34102;47.716;10.296;2023-03-01T17:37:21;32.20;;;17.95;;
48285;SDS011;34102;47.716;10.296;2023-03-01T17:39:46;31.40;;;19.27;;
48285;SDS011;34102;47.716;10.296;2023-03-01T17:42:12;33.35;;;20.00;;
48285;SDS011;34102;47.716;10.296;2023-03-01T17:44:37;36.00;;;20.02;;
48285;SDS011;34102;47.716;10.296;2023-03-01T17:47:03;31.27;;;18.17;;
48285;SDS011;34102;47.716;10.296;2023-03-01T17:49:29;30.45;;;17.70;;
48285;SDS011;34102;47.716;10.296;2023-03-01T17:51:54;30.63;;;18.23;;
48285;SDS011;34102;47.716;10.296;2023-03-01T17:54:19;28.98;;;18.23;;
48285;SDS011;34102;47.716;10.296;2023-03-01T17:56:45;31.35;;;18.83;;
48285;SDS011;34102;47.716;10.296;2023-03-01T17:59:10;35.78;;;19.23;;
48285;SDS011;34102;47.716;10.296;2023-03-01T18:01:35;39.22;;;20.17;;
48285;SDS011;34102;47.716;10.296;2023-03-01T18:04:01;36.00;;;20.00;;
48285;SDS011;34102;47.716;10.296;2023-03-01T18:06:27;37.47;;;21.30;;
48285;SDS011;34102;47.716;10.296;2023-03-01T18:08:52;31.48;;;19.42;;
48285;SDS011;34102;47.716;10.296;2023-03-01T18:11:19;39.40;;;20.40;;
48285;SDS011;34102;47.716;10.296;2023-03-01T18:13:45;33.58;;;20.73;;
48285;SDS011;34102;47.716;10.296;2023-03-01T18:16:13;36.67;;;21.25;;
48285;SDS011;34102;47.716;10.296;2023-03-01T18:18:39;36.35;;;20.58;;
48285;SDS011;34102;47.716;10.296;2023-03-01T18:21:05;36.17;;;20.83;;
48285;SDS011;34102;47.716;10.296;2023-03-01T18:23:31;45.85;;;22.17;;
48285;SDS011;34102;47.716;10.296;2023-03-01T18:26:00;34.00;;;19.52;;
48285;SDS011;34102;47.716;10.296;2023-03-01T18:28:26;39.33;;;20.75;;
48285;SDS011;34102;47.716;10.296;2023-03-01T18:31:03;39.55;;;21.13;;
48285;SDS011;34102;47.716;10.296;2023-03-01T18:33:29;37.92;;;20.42;;
48285;SDS011;34102;47.716;10.296;2023-03-01T18:35:54;38.47;;;21.90;;
48285;SDS011;34102;47.716;10.296;2023-03-01T18:38:19;42.05;;;23.20;;
48285;SDS011;34102;47.716;10.296;2023-03-01T18:40:45;35.10;;;20.48;;
48285;SDS011;34102;47.716;10.296;2023-03-01T18:43:12;37.80;;;20.83;;
48285;SDS011;34102;47.716;10.296;2023-03-01T18:45:37;35.13;;;20.42;;
48285;SDS011;34102;47.716;10.296;2023-03-01T18:48:06;37.28;;;21.67;;
48285;SDS011;34102;47.716;10.296;2023-03-01T18:50:31;38.15;;;22.65;;
48285;SDS011;34102;47.716;10.296;2023-03-01T18:52:57;43.33;;;23.58;;
48285;SDS011;34102;47.716;10.296;2023-03-01T18:55:22;49.55;;;25.55;;
48285;SDS011;34102;47.716;10.296;2023-03-01T18:57:48;42.22;;;23.52;;
48285;SDS011;34102;47.716;10.296;2023-03-01T19:00:13;42.35;;;22.83;;
48285;SDS011;34102;47.716;10.296;2023-03-01T19:02:39;44.90;;;25.80;;
48285;SDS011;34102;47.716;10.296;2023-03-01T19:05:04;43.33;;;26.00;;
48285;SDS011;34102;47.716;10.296;2023-03-01T19:07:30;46.75;;;26.10;;
48285;SDS011;34102;47.716;10.296;2023-03-01T19:09:56;42.67;;;23.67;;
48285;SDS011;34102;47.716;10.296;2023-03-01T19:12:21;39.47;;;24.25;;
48285;SDS011;34102;47.716;10.296;2023-03-01T19:14:46;40.63;;;24.20;;
48285;SDS011;34102;47.716;10.296;2023-03-01T19:17:12;45.05;;;25.30;;
48285;SDS011;34102;47.716;10.296;2023-03-01T19:19:37;41.33;;;24.30;;
48285;SDS011;34102;47.716;10.296;2023-03-01T19:22:03;39.88;;;24.33;;
48285;SDS011;34102;47.716;10.296;2023-03-01T19:24:30;37.85;;;21.15;;
48285;SDS011;34102;47.716;10.296;2023-03-01T19:26:56;42.70;;;23.40;;
48285;SDS011;34102;47.716;10.296;2023-03-01T19:29:22;50.72;;;27.42;;
48285;SDS011;34102;47.716;10.296;2023-03-01T19:31:47;45.00;;;25.70;;
48285;SDS011;34102;47.716;10.296;2023-03-01T19:34:13;38.40;;;22.75;;
48285;SDS011;34102;47.716;10.296;2023-03-01T19:36:39;41.28;;;24.27;;
48285;SDS011;34102;47.716;10.296;2023-03-01T19:39:06;38.30;;;22.40;;
48285;SDS011;34102;47.716;10.296;2023-03-01T19:41:32;35.58;;;22.85;;
48285;SDS011;34102;47.716;10.296;2023-03-01T19:43:58;40.42;;;23.67;;
48285;SDS011;34102;47.716;10.296;2023-03-01T19:46:26;39.97;;;23.38;;
48285;SDS011;34102;47.716;10.296;2023-03-01T19:48:52;38.58;;;23.02;;
48285;SDS011;34102;47.716;10.296;2023-03-01T19:51:18;39.05;;;22.15;;
48285;SDS011;34102;47.716;10.296;2023-03-01T19:53:43;39.90;;;21.23;;
48285;SDS011;34102;47.716;10.296;2023-03-01T19:56:09;36.10;;;20.83;;
48285;SDS011;34102;47.716;10.296;2023-03-01T19:58:34;39.42;;;22.67;;
48285;SDS011;34102;47.716;10.296;2023-03-01T20:01:00;41.22;;;23.75;;
48285;SDS011;34102;47.716;10.296;2023-03-01T20:03:27;41.38;;;24.27;;
48285;SDS011;34102;47.716;10.296;2023-03-01T20:05:52;42.53;;;24.58;;
48285;SDS011;34102;47.716;10.296;2023-03-01T20:08:18;41.00;;;23.27;;
48285;SDS011;34102;47.716;10.296;2023-03-01T20:10:44;45.67;;;24.70;;
48285;SDS011;34102;47.716;10.296;2023-03-01T20:13:09;40.90;;;24.25;;
48285;SDS011;34102;47.716;10.296;2023-03-01T20:15:34;40.85;;;23.38;;
48285;SDS011;34102;47.716;10.296;2023-03-01T20:18:00;43.78;;;24.17;;
48285;SDS011;34102;47.716;10.296;2023-03-01T20:20:25;42.35;;;24.55;;
48285;SDS011;34102;47.716;10.296;2023-03-01T20:22:50;47.10;;;26.00;;
48285;SDS011;34102;47.716;10.296;2023-03-01T20:25:16;43.45;;;25.40;;
48285;SDS011;34102;47.716;10.296;2023-03-01T20:27:41;42.00;;;22.85;;
48285;SDS011;34102;47.716;10.296;2023-03-01T20:30:11;40.90;;;23.58;;
48285;SDS011;34102;47.716;10.296;2023-03-01T20:32:37;39.45;;;23.17;;
48285;SDS011;34102;47.716;10.296;2023-03-01T20:35:02;38.33;;;23.42;;
48285;SDS011;34102;47.716;10.296;2023-03-01T20:37:28;44.90;;;25.08;;
48285;SDS011;34102;47.716;10.296;2023-03-01T20:39:53;41.35;;;22.75;;
48285;SDS011;34102;47.716;10.296;2023-03-01T20:42:19;42.72;;;24.45;;
48285;SDS011;34102;47.716;10.296;2023-03-01T20:44:44;42.25;;;23.33;;
48285;SDS011;34102;47.716;10.296;2023-03-01T20:47:10;39.65;;;23.13;;
48285;SDS011;34102;47.716;10.296;2023-03-01T20:49:36;38.35;;;22.65;;
48285;SDS011;34102;47.716;10.296;2023-03-01T20:52:01;36.72;;;20.20;;
48285;SDS011;34102;47.716;10.296;2023-03-01T20:54:26;43.45;;;23.10;;
48285;SDS011;34102;47.716;10.296;2023-03-01T20:56:52;43.80;;;23.00;;
48285;SDS011;34102;47.716;10.296;2023-03-01T20:59:17;40.85;;;22.73;;
48285;SDS011;34102;47.716;10.296;2023-03-01T21:01:43;40.70;;;23.58;;
48285;SDS011;34102;47.716;10.296;2023-03-01T21:04:08;42.13;;;23.85;;
48285;SDS011;34102;47.716;10.296;2023-03-01T21:06:34;38.60;;;22.77;;
48285;SDS011;34102;47.716;10.296;2023-03-01T21:08:59;39.03;;;23.38;;
48285;SDS011;34102;47.716;10.296;2023-03-01T21:11:25;42.50;;;23.77;;
48285;SDS011;34102;47.716;10.296;2023-03-01T21:13:51;40.75;;;23.52;;
48285;SDS011;34102;47.716;10.296;2023-03-01T21:16:16;37.78;;;22.92;;
48285;SDS011;34102;47.716;10.296;2023-03-01T21:18:43;42.05;;;23.90;;
48285;SDS011;34102;47.716;10.296;2023-03-01T21:21:10;39.13;;;22.63;;
48285;SDS011;34102;47.716;10.296;2023-03-01T21:23:37;40.15;;;22.70;;
48285;SDS011;34102;47.716;10.296;2023-03-01T21:28:28;40.13;;;23.00;;
